sensor_id;sensor_type;location;lat;lon;timestamp;temperature;humidity
53645;DHT22;39547;45.554;12.068;2022-10-18T00:01:20;15.70;84.80
53645;DHT22;39547;45.554;12.068;2022-10-18T00:07:21;15.60;84.80
53645;DHT22;39547;45.554;12.068;2022-10-18T00:13:23;15.70;84.90
53645;DHT22;39547;45.554;12.068;2022-10-18T00:19:24;15.60;84.80
53645;DHT22;39547;45.554;12.068;2022-10-18T00:25:26;15.60;84.80
53645;DHT22;39547;45.554;12.068;2022-10-18T00:31:35;15.60;84.90
53645;DHT22;39547;45.554;12.068;2022-10-18T00:37:37;15.60;84.90
53645;DHT22;39547;45.554;12.068;2022-10-18T00:43:59;15.60;84.90
53645;DHT22;39547;45.554;12.068;2022-10-18T00:50:02;15.50;85.00
53645;DHT22;39547;45.554;12.068;2022-10-18T00:56:05;15.50;85.10
53645;DHT22;39547;45.554;12.068;2022-10-18T01:02:07;15.50;85.20
53645;DHT22;39547;45.554;12.068;2022-10-18T01:39:21;15.20;85.20
53645;DHT22;39547;45.554;12.068;2022-10-18T01:45:25;15.20;85.20
53645;DHT22;39547;45.554;12.068;2022-10-18T01:51:28;15.20;85.20
53645;DHT22;39547;45.554;12.068;2022-10-18T02:03:36;15.10;85.30
53645;DHT22;39547;45.554;12.068;2022-10-18T02:09:50;15.10;85.30
53645;DHT22;39547;45.554;12.068;2022-10-18T02:16:00;15.10;85.30
53645;DHT22;39547;45.554;12.068;2022-10-18T02:22:05;15.00;85.30
53645;DHT22;39547;45.554;12.068;2022-10-18T02:28:08;15.00;85.30
53645;DHT22;39547;45.554;12.068;2022-10-18T02:34:22;15.00;85.20
53645;DHT22;39547;45.554;12.068;2022-10-18T02:40:24;14.90;85.30
53645;DHT22;39547;45.554;12.068;2022-10-18T02:46:26;14.80;85.30
53645;DHT22;39547;45.554;12.068;2022-10-18T02:52:27;14.80;85.30
53645;DHT22;39547;45.554;12.068;2022-10-18T02:58:29;14.80;85.30
53645;DHT22;39547;45.554;12.068;2022-10-18T03:04:30;14.70;85.30
53645;DHT22;39547;45.554;12.068;2022-10-18T03:10:32;14.70;85.40
53645;DHT22;39547;45.554;12.068;2022-10-18T03:16:33;14.60;85.30
53645;DHT22;39547;45.554;12.068;2022-10-18T03:22:35;14.60;85.40
53645;DHT22;39547;45.554;12.068;2022-10-18T03:28:36;14.60;85.40
53645;DHT22;39547;45.554;12.068;2022-10-18T03:34:38;14.60;85.40
53645;DHT22;39547;45.554;12.068;2022-10-18T03:40:39;14.50;85.40
53645;DHT22;39547;45.554;12.068;2022-10-18T03:46:40;14.50;85.40
53645;DHT22;39547;45.554;12.068;2022-10-18T03:52:42;14.50;85.50
53645;DHT22;39547;45.554;12.068;2022-10-18T03:58:43;14.40;85.40
53645;DHT22;39547;45.554;12.068;2022-10-18T04:04:45;14.40;85.50
53645;DHT22;39547;45.554;12.068;2022-10-18T04:10:46;14.40;85.50
53645;DHT22;39547;45.554;12.068;2022-10-18T04:16:48;14.40;85.50
53645;DHT22;39547;45.554;12.068;2022-10-18T04:22:50;14.30;85.50
53645;DHT22;39547;45.554;12.068;2022-10-18T04:28:52;14.40;85.50
53645;DHT22;39547;45.554;12.068;2022-10-18T04:34:53;14.30;85.50
53645;DHT22;39547;45.554;12.068;2022-10-18T04:40:55;14.30;85.50
53645;DHT22;39547;45.554;12.068;2022-10-18T04:46:57;14.30;85.60
53645;DHT22;39547;45.554;12.068;2022-10-18T04:52:58;14.30;85.50
53645;DHT22;39547;45.554;12.068;2022-10-18T04:59:00;14.30;85.60
53645;DHT22;39547;45.554;12.068;2022-10-18T05:05:01;14.20;85.60
53645;DHT22;39547;45.554;12.068;2022-10-18T05:11:03;14.20;85.70
53645;DHT22;39547;45.554;12.068;2022-10-18T05:17:04;14.20;85.70
53645;DHT22;39547;45.554;12.068;2022-10-18T05:23:06;14.20;85.70
53645;DHT22;39547;45.554;12.068;2022-10-18T05:29:10;14.20;85.70
53645;DHT22;39547;45.554;12.068;2022-10-18T05:35:12;14.20;85.70
53645;DHT22;39547;45.554;12.068;2022-10-18T05:41:13;14.20;85.70
53645;DHT22;39547;45.554;12.068;2022-10-18T05:47:15;14.20;85.80
53645;DHT22;39547;45.554;12.068;2022-10-18T05:53:16;14.10;85.80
53645;DHT22;39547;45.554;12.068;2022-10-18T05:59:21;14.10;85.80
53645;DHT22;39547;45.554;12.068;2022-10-18T06:05:26;14.20;85.80
53645;DHT22;39547;45.554;12.068;2022-10-18T06:11:28;14.20;85.90
53645;DHT22;39547;45.554;12.068;2022-10-18T06:17:30;14.30;85.90
53645;DHT22;39547;45.554;12.068;2022-10-18T06:23:31;14.20;85.80
53645;DHT22;39547;45.554;12.068;2022-10-18T06:29:34;14.20;85.70
53645;DHT22;39547;45.554;12.068;2022-10-18T06:35:36;14.20;85.60
53645;DHT22;39547;45.554;12.068;2022-10-18T06:41:37;14.20;85.60
53645;DHT22;39547;45.554;12.068;2022-10-18T06:47:53;14.30;85.70
53645;DHT22;39547;45.554;12.068;2022-10-18T06:53:55;14.40;85.70
53645;DHT22;39547;45.554;12.068;2022-10-18T06:59:56;14.60;85.80
53645;DHT22;39547;45.554;12.068;2022-10-18T07:06:00;14.70;85.70
53645;DHT22;39547;45.554;12.068;2022-10-18T07:12:02;14.80;85.70
53645;DHT22;39547;45.554;12.068;2022-10-18T07:18:04;15.00;85.80
53645;DHT22;39547;45.554;12.068;2022-10-18T07:24:06;15.20;85.70
53645;DHT22;39547;45.554;12.068;2022-10-18T07:30:09;15.30;85.80
53645;DHT22;39547;45.554;12.068;2022-10-18T07:36:12;15.50;85.50
53645;DHT22;39547;45.554;12.068;2022-10-18T07:42:13;15.70;85.60
53645;DHT22;39547;45.554;12.068;2022-10-18T07:48:15;15.90;85.20
53645;DHT22;39547;45.554;12.068;2022-10-18T07:54:16;16.10;85.10
53645;DHT22;39547;45.554;12.068;2022-10-18T08:00:19;16.30;85.00
53645;DHT22;39547;45.554;12.068;2022-10-18T08:06:22;16.50;84.80
53645;DHT22;39547;45.554;12.068;2022-10-18T08:12:24;16.70;84.60
53645;DHT22;39547;45.554;12.068;2022-10-18T08:18:25;16.90;84.40
53645;DHT22;39547;45.554;12.068;2022-10-18T08:24:27;17.10;84.20
53645;DHT22;39547;45.554;12.068;2022-10-18T08:30:28;17.30;83.90
53645;DHT22;39547;45.554;12.068;2022-10-18T08:36:30;17.50;83.60
53645;DHT22;39547;45.554;12.068;2022-10-18T08:42:39;17.70;83.40
53645;DHT22;39547;45.554;12.068;2022-10-18T08:48:48;17.80;83.10
53645;DHT22;39547;45.554;12.068;2022-10-18T08:54:53;18.10;82.90
53645;DHT22;39547;45.554;12.068;2022-10-18T09:20:24;18.70;81.30
53645;DHT22;39547;45.554;12.068;2022-10-18T09:26:30;18.90;81.10
53645;DHT22;39547;45.554;12.068;2022-10-18T09:38:58;19.20;79.80
53645;DHT22;39547;45.554;12.068;2022-10-18T09:45:29;19.40;79.20
53645;DHT22;39547;45.554;12.068;2022-10-18T09:51:36;19.60;79.20
53645;DHT22;39547;45.554;12.068;2022-10-18T09:57:45;19.70;78.40
53645;DHT22;39547;45.554;12.068;2022-10-18T10:03:50;20.00;78.30
53645;DHT22;39547;45.554;12.068;2022-10-18T10:10:05;20.20;78.00
53645;DHT22;39547;45.554;12.068;2022-10-18T10:16:08;20.30;77.50
53645;DHT22;39547;45.554;12.068;2022-10-18T10:22:12;20.50;77.00
53645;DHT22;39547;45.554;12.068;2022-10-18T10:28:21;20.70;76.30
53645;DHT22;39547;45.554;12.068;2022-10-18T10:34:28;20.90;75.90
53645;DHT22;39547;45.554;12.068;2022-10-18T10:40:32;21.00;74.50
53645;DHT22;39547;45.554;12.068;2022-10-18T10:46:35;21.20;74.90
53645;DHT22;39547;45.554;12.068;2022-10-18T10:52:38;21.30;74.30
53645;DHT22;39547;45.554;12.068;2022-10-18T10:58:41;21.40;74.00
53645;DHT22;39547;45.554;12.068;2022-10-18T11:04:44;21.50;73.80
53645;DHT22;39547;45.554;12.068;2022-10-18T11:10:55;21.60;72.30
53645;DHT22;39547;45.554;12.068;2022-10-18T11:17:24;21.80;72.90
53645;DHT22;39547;45.554;12.068;2022-10-18T11:23:32;21.90;73.00
53645;DHT22;39547;45.554;12.068;2022-10-18T11:36:00;22.20;71.40
53645;DHT22;39547;45.554;12.068;2022-10-18T11:42:27;22.20;69.80
53645;DHT22;39547;45.554;12.068;2022-10-18T11:55:32;22.50;68.40
53645;DHT22;39547;45.554;12.068;2022-10-18T12:07:42;23.00;69.00
53645;DHT22;39547;45.554;12.068;2022-10-18T12:13:52;23.20;68.70
53645;DHT22;39547;45.554;12.068;2022-10-18T12:20:13;23.20;64.10
53645;DHT22;39547;45.554;12.068;2022-10-18T12:26:16;23.20;66.30
53645;DHT22;39547;45.554;12.068;2022-10-18T12:32:23;23.30;66.00
53645;DHT22;39547;45.554;12.068;2022-10-18T12:51:19;23.70;65.60
53645;DHT22;39547;45.554;12.068;2022-10-18T12:57:22;23.70;63.50
53645;DHT22;39547;45.554;12.068;2022-10-18T13:09:27;23.70;64.20
53645;DHT22;39547;45.554;12.068;2022-10-18T13:15:43;23.70;64.50
53645;DHT22;39547;45.554;12.068;2022-10-18T13:22:09;23.70;64.10
53645;DHT22;39547;45.554;12.068;2022-10-18T13:40:25;23.50;64.20
53645;DHT22;39547;45.554;12.068;2022-10-18T13:59:00;23.10;65.90
53645;DHT22;39547;45.554;12.068;2022-10-18T14:05:50;22.90;66.20
53645;DHT22;39547;45.554;12.068;2022-10-18T14:11:48;22.70;66.70
53645;DHT22;39547;45.554;12.068;2022-10-18T14:17:57;22.70;67.50
53645;DHT22;39547;45.554;12.068;2022-10-18T14:24:00;22.50;68.40
53645;DHT22;39547;45.554;12.068;2022-10-18T14:30:19;22.40;69.20
53645;DHT22;39547;45.554;12.068;2022-10-18T14:42:24;22.20;70.30
53645;DHT22;39547;45.554;12.068;2022-10-18T14:48:25;22.10;70.80
53645;DHT22;39547;45.554;12.068;2022-10-18T14:54:31;22.00;71.20
53645;DHT22;39547;45.554;12.068;2022-10-18T15:00:36;21.90;71.50
53645;DHT22;39547;45.554;12.068;2022-10-18T15:06:42;21.80;71.80
53645;DHT22;39547;45.554;12.068;2022-10-18T15:12:44;21.70;72.10
53645;DHT22;39547;45.554;12.068;2022-10-18T15:19:06;21.50;72.30
53645;DHT22;39547;45.554;12.068;2022-10-18T15:31:29;21.30;73.00
53645;DHT22;39547;45.554;12.068;2022-10-18T15:37:43;21.20;73.30
53645;DHT22;39547;45.554;12.068;2022-10-18T15:43:45;21.00;73.60
53645;DHT22;39547;45.554;12.068;2022-10-18T15:49:52;20.90;73.80
53645;DHT22;39547;45.554;12.068;2022-10-18T15:56:12;20.80;74.10
53645;DHT22;39547;45.554;12.068;2022-10-18T16:02:25;20.70;74.30
53645;DHT22;39547;45.554;12.068;2022-10-18T16:08:28;20.50;74.60
53645;DHT22;39547;45.554;12.068;2022-10-18T16:14:33;20.30;74.90
53645;DHT22;39547;45.554;12.068;2022-10-18T16:20:36;20.20;75.30
53645;DHT22;39547;45.554;12.068;2022-10-18T16:26:37;20.00;75.50
53645;DHT22;39547;45.554;12.068;2022-10-18T16:32:39;19.90;75.60
53645;DHT22;39547;45.554;12.068;2022-10-18T16:38:41;19.80;75.80
53645;DHT22;39547;45.554;12.068;2022-10-18T16:44:42;19.70;76.00
53645;DHT22;39547;45.554;12.068;2022-10-18T16:50:46;19.50;76.10
53645;DHT22;39547;45.554;12.068;2022-10-18T16:56:47;19.40;76.30
53645;DHT22;39547;45.554;12.068;2022-10-18T17:02:50;19.40;76.40
53645;DHT22;39547;45.554;12.068;2022-10-18T17:08:52;19.30;76.50
53645;DHT22;39547;45.554;12.068;2022-10-18T17:14:54;19.20;76.60
53645;DHT22;39547;45.554;12.068;2022-10-18T17:20:56;19.10;76.80
53645;DHT22;39547;45.554;12.068;2022-10-18T17:27:00;19.00;76.90
53645;DHT22;39547;45.554;12.068;2022-10-18T17:33:02;18.90;77.10
53645;DHT22;39547;45.554;12.068;2022-10-18T17:39:04;18.80;77.40
53645;DHT22;39547;45.554;12.068;2022-10-18T17:45:05;18.70;77.70
53645;DHT22;39547;45.554;12.068;2022-10-18T17:51:09;18.60;77.90
53645;DHT22;39547;45.554;12.068;2022-10-18T17:57:11;18.50;78.10
53645;DHT22;39547;45.554;12.068;2022-10-18T18:03:12;18.50;78.30
53645;DHT22;39547;45.554;12.068;2022-10-18T18:09:15;18.30;78.50
53645;DHT22;39547;45.554;12.068;2022-10-18T18:15:17;18.30;78.80
53645;DHT22;39547;45.554;12.068;2022-10-18T18:21:19;18.20;78.90
53645;DHT22;39547;45.554;12.068;2022-10-18T18:27:21;18.20;79.20
53645;DHT22;39547;45.554;12.068;2022-10-18T18:33:23;18.20;79.40
53645;DHT22;39547;45.554;12.068;2022-10-18T18:39:25;18.20;79.60
53645;DHT22;39547;45.554;12.068;2022-10-18T18:45:29;18.00;79.70
53645;DHT22;39547;45.554;12.068;2022-10-18T18:51:31;18.00;79.90
53645;DHT22;39547;45.554;12.068;2022-10-18T18:57:33;18.00;80.10
53645;DHT22;39547;45.554;12.068;2022-10-18T19:03:36;17.90;80.30
53645;DHT22;39547;45.554;12.068;2022-10-18T19:09:38;17.80;80.50
53645;DHT22;39547;45.554;12.068;2022-10-18T19:15:42;17.80;80.70
53645;DHT22;39547;45.554;12.068;2022-10-18T19:21:49;17.80;80.90
53645;DHT22;39547;45.554;12.068;2022-10-18T19:27:51;17.70;80.90
53645;DHT22;39547;45.554;12.068;2022-10-18T19:33:53;17.70;81.10
53645;DHT22;39547;45.554;12.068;2022-10-18T19:39:54;17.70;81.30
53645;DHT22;39547;45.554;12.068;2022-10-18T19:46:01;17.50;81.70
53645;DHT22;39547;45.554;12.068;2022-10-18T19:52:02;17.30;81.90
53645;DHT22;39547;45.554;12.068;2022-10-18T19:58:04;17.30;82.30
53645;DHT22;39547;45.554;12.068;2022-10-18T20:04:07;17.20;82.70
53645;DHT22;39547;45.554;12.068;2022-10-18T20:10:08;17.10;82.70
53645;DHT22;39547;45.554;12.068;2022-10-18T20:16:11;17.10;82.90
53645;DHT22;39547;45.554;12.068;2022-10-18T20:22:13;17.00;82.80
53645;DHT22;39547;45.554;12.068;2022-10-18T20:28:14;17.00;82.90
53645;DHT22;39547;45.554;12.068;2022-10-18T20:34:15;17.00;82.90
53645;DHT22;39547;45.554;12.068;2022-10-18T20:40:17;16.90;82.90
53645;DHT22;39547;45.554;12.068;2022-10-18T20:46:19;16.90;83.00
53645;DHT22;39547;45.554;12.068;2022-10-18T20:52:20;16.80;82.90
53645;DHT22;39547;45.554;12.068;2022-10-18T20:58:22;16.80;83.10
53645;DHT22;39547;45.554;12.068;2022-10-18T21:04:23;16.80;83.50
53645;DHT22;39547;45.554;12.068;2022-10-18T21:10:25;16.70;84.10
53645;DHT22;39547;45.554;12.068;2022-10-18T21:16:31;16.70;84.30
53645;DHT22;39547;45.554;12.068;2022-10-18T21:22:32;16.60;84.40
53645;DHT22;39547;45.554;12.068;2022-10-18T21:28:34;16.60;84.30
53645;DHT22;39547;45.554;12.068;2022-10-18T21:34:35;16.60;84.20
53645;DHT22;39547;45.554;12.068;2022-10-18T21:40:37;16.50;84.10
53645;DHT22;39547;45.554;12.068;2022-10-18T21:46:44;16.60;84.00
53645;DHT22;39547;45.554;12.068;2022-10-18T21:52:47;16.60;84.00
53645;DHT22;39547;45.554;12.068;2022-10-18T21:58:49;16.60;84.00
53645;DHT22;39547;45.554;12.068;2022-10-18T22:04:50;16.50;83.90
53645;DHT22;39547;45.554;12.068;2022-10-18T22:10:52;16.50;84.00
53645;DHT22;39547;45.554;12.068;2022-10-18T22:16:53;16.50;83.90
53645;DHT22;39547;45.554;12.068;2022-10-18T22:22:54;16.50;83.90
53645;DHT22;39547;45.554;12.068;2022-10-18T22:28:59;16.40;84.00
53645;DHT22;39547;45.554;12.068;2022-10-18T22:35:00;16.40;84.00
53645;DHT22;39547;45.554;12.068;2022-10-18T22:41:09;16.30;84.10
53645;DHT22;39547;45.554;12.068;2022-10-18T22:47:11;16.30;84.10
53645;DHT22;39547;45.554;12.068;2022-10-18T22:53:12;16.30;84.10
53645;DHT22;39547;45.554;12.068;2022-10-18T22:59:14;16.30;84.20
53645;DHT22;39547;45.554;12.068;2022-10-18T23:05:15;16.20;84.20
53645;DHT22;39547;45.554;12.068;2022-10-18T23:11:17;16.20;84.40
53645;DHT22;39547;45.554;12.068;2022-10-18T23:17:19;16.10;84.40
53645;DHT22;39547;45.554;12.068;2022-10-18T23:23:20;16.00;84.40
53645;DHT22;39547;45.554;12.068;2022-10-18T23:29:21;16.00;84.40
53645;DHT22;39547;45.554;12.068;2022-10-18T23:35:23;15.90;84.50
53645;DHT22;39547;45.554;12.068;2022-10-18T23:41:25;15.90;84.40
53645;DHT22;39547;45.554;12.068;2022-10-18T23:47:26;15.90;84.50
53645;DHT22;39547;45.554;12.068;2022-10-18T23:53:28;15.80;84.40
53645;DHT22;39547;45.554;12.068;2022-10-18T23:59:30;15.80;84.50
